Text Box: All records at near 07:00 local time
Kleivo 1 weather for Sep 2009
Month no. 34
Obs.
Da.
Temp. Dew Point Precip. Wind
Speed
Wind gusts Cloud cover Press. Humidity Wind dir. Sunny OPT
01.09.2009 16,2 14,7 0,0 6,0 13,0 10 1003,0 91,0 180,0 1 92,5 %
02.09.2009 11,6 9,9 0,5 1,6 11,3 3 996,8 89,0 135,0 1 72,5 %
03.09.2009 11,0 5,9 0,0 1,0 7,0 0 998,0 71,0 45,0   65,0 %
04.09.2009 11,5 8,9 0,0 0,0 8,0 2 982,3 84,0 337,5   70,0 %
05.09.2009 12,6 5,7 0,0 19,3 33,8 0 997,5 63,0 0,0   55,0 %
06.09.2009 10,4 8,3 0,0 0,0 3,2 0 1008,7 87,0 45,0   65,0 %
07.09.2009 12,5 9,7 0,0 12,9 19,3 3 1007,7 83,0 180,0 1 67,5 %
08.09.2009 13,3 6,9 0,0 9,7 16,1 0 1010,7 65,0 180,0   62,5 %
09.09.2009 13,6 5,7 0,0 9,7 25,7 0 1012,8 59,0 180,0   62,5 %
10.09.2009 10,1 9,2 0,0 0,0 0,0 0 1028,7 94,0 22,5   65,0 %
11.09.2009 9,5 8,6 0,0 0,0 0,0 0 1032,5 94,0 270,0   62,5 %
12.09.2009 11,6 10,5 0,0 0,0 8,0 3 1024,3 93,0 180,0 1 72,5 %
13.09.2009 11,2 6,6 0,0 14,5 32,2 0 1021,2 73,0 0,0   57,5 %
14.09.2009 10,2 8,8 0,0 2,0 5,0 0 1027,4 91,0 67,5   65,0 %
15.09.2009 10,3 9,0 0,0 0,0 0,0 0 1028,3 92,0 337,5   65,0 %
16.09.2009 10,7 2,7 0,0 12,9 19,3 0 1018,5 58,0 0,0   57,5 %
17.09.2009 9,3 5,8 0,0 9,7 14,5 10 1019,9 79,0 0,0 1 82,5 %
18.09.2009 10,1 7,6 4,1 0,0 0,0 0 1019,9 85,0 67,5   62,5 %
19.09.2009 11,7 6,8 0,0 8,0 12,9 0 1015,1 72,0 180,0   60,0 %
20.09.2009 11,4 9,8 0,0 0,0 3,2 2 1012,1 90,0 270,0   70,0 %
21.09.2009 12,6 10,8 0,0 20,9 29,0 3 1009,7 89,0 202,5 1 62,5 %
22.09.2009 13,8 12,7 0,0 16,1 29,0 2 1001,6 93,0 202,5   62,5 %
23.09.2009 10,2 6,9 0,0 0,0 8,0 0 1007,0 80,0 270,0   65,0 %
24.09.2009 10,4 4,8 0,0 4,8 12,9 3 1007,7 68,0 337,5 1 70,0 %
25.09.2009 12,9 10,3 0,0 0,0 11,3 2 1012,1 84,0 337,5   72,5 %
26.09.2009 12,1 10,6 0,0 1,6 11,3 2 1016,8 91,0 337,5   70,0 %
27.09.2009 13,5 9,7 13,3 14,5 17,7 10 1013,1 78,0 225,0 1 75,0 %
28.09.2009 9,9 5,1 5,6 3,2 9,7 3 1009,7 72,0 315,0 1 67,5 %
29.09.2009 6,4 1,9 0,0 0,0 9,7 10 1010,4 73,0 315,0 1 85,0 %
30.09.2009 5,2 4,5 0,0 0,0 1,6 10 1010,7 95,0 202,5 1 85,0 %
                       
Avrg/Sum 11,2 7,9 23,5 5,6 12,4 2,6 1012,1 81,2 180,8 11 68,3 %